TimeEST,TemperatureF,Dew PointF,Humidity,Sea Level PressureIn,VisibilityMPH,Wind Direction,Wind SpeedMPH,Gust SpeedMPH,PrecipitationIn,Events,Conditions,WindDirDegrees,DateUTC
12:48 AM,68.0,64.4,88,29.90,5.0,SW,8.1,-,0.13,Rain,Heavy Rain,220,2013-12-15 05:48:00
12:53 AM,66.9,64.0,90,29.90,5.0,SSW,11.5,-,0.15,Rain,Rain,210,2013-12-15 05:53:00
1:36 AM,66.9,64.0,90,29.88,10.0,SSW,9.2,-,0.04,Rain,Light Rain,210,2013-12-15 06:36:00
1:53 AM,66.9,64.0,90,29.88,10.0,SSW,9.2,-,0.04,Rain,Light Rain,200,2013-12-15 06:53:00
2:53 AM,66.0,64.0,93,29.87,10.0,SW,4.6,-,0.02,Rain,Light Rain,220,2013-12-15 07:53:00
3:44 AM,66.9,64.0,90,29.87,10.0,SW,4.6,-,0.00,,Overcast,220,2013-12-15 08:44:00
3:53 AM,66.9,64.0,90,29.87,10.0,SW,4.6,-,0.00,,Overcast,230,2013-12-15 08:53:00
4:23 AM,66.9,64.0,90,29.88,10.0,West,4.6,-,N/A,,Overcast,260,2013-12-15 09:23:00
4:31 AM,66.9,64.0,90,29.88,10.0,West,4.6,-,N/A,,Overcast,270,2013-12-15 09:31:00
4:53 AM,62.1,59.0,90,29.92,2.5,NNW,24.2,29.9,0.04,Rain,Light Rain,330,2013-12-15 09:53:00
4:57 AM,61.0,57.9,90,29.92,4.0,NNW,20.7,29.9,0.00,Rain,Light Rain,340,2013-12-15 09:57:00
5:05 AM,61.0,57.0,87,29.92,8.0,NNW,18.4,-,0.00,Rain,Light Rain,340,2013-12-15 10:05:00
5:44 AM,62.1,57.0,84,29.92,10.0,NNW,5.8,-,0.00,,Overcast,340,2013-12-15 10:44:00
5:53 AM,61.0,57.0,87,29.93,10.0,NW,5.8,-,0.00,Rain,Light Rain,320,2013-12-15 10:53:00
6:53 AM,60.1,57.0,90,29.95,9.0,NNW,3.5,-,0.04,Rain,Light Rain,330,2013-12-15 11:53:00
7:53 AM,61.0,57.0,87,29.98,10.0,Calm,Calm,-,0.00,Rain,Light Rain,0,2013-12-15 12:53:00
8:53 AM,61.0,57.0,87,29.99,10.0,South,4.6,-,0.01,Rain,Light Rain,190,2013-12-15 13:53:00
9:53 AM,61.0,57.9,90,30.02,10.0,West,4.6,-,0.01,,Overcast,260,2013-12-15 14:53:00
10:53 AM,64.0,57.9,80,30.00,10.0,WSW,4.6,-,N/A,,Overcast,250,2013-12-15 15:53:00
11:53 AM,64.9,55.9,73,30.00,10.0,West,9.2,-,0.00,Rain,Light Rain,270,2013-12-15 16:53:00
12:30 PM,64.9,57.0,75,29.98,10.0,West,6.9,-,0.00,,Mostly Cloudy,270,2013-12-15 17:30:00
12:53 PM,64.9,57.0,75,29.97,10.0,WNW,9.2,-,0.00,,Mostly Cloudy,300,2013-12-15 17:53:00
1:53 PM,66.0,55.9,70,29.97,10.0,NW,9.2,-,N/A,,Overcast,310,2013-12-15 18:53:00
2:53 PM,66.9,54.0,63,29.98,10.0,West,12.7,19.6,N/A,,Mostly Cloudy,280,2013-12-15 19:53:00
3:53 PM,63.0,53.1,70,29.99,10.0,WNW,12.7,-,N/A,,Mostly Cloudy,290,2013-12-15 20:53:00
4:50 PM,60.8,53.6,77,30.00,10.0,NW,12.7,-,N/A,,Mostly Cloudy,320,2013-12-15 21:50:00
4:53 PM,61.0,53.1,75,30.01,10.0,NW,10.4,-,N/A,,Mostly Cloudy,310,2013-12-15 21:53:00
5:53 PM,57.9,50.0,75,30.04,10.0,NW,15.0,-,N/A,,Overcast,310,2013-12-15 22:53:00
6:53 PM,55.9,48.0,75,30.07,10.0,NW,15.0,-,N/A,,Overcast,310,2013-12-15 23:53:00
7:53 PM,54.0,46.0,75,30.10,10.0,WNW,10.4,-,N/A,,Overcast,300,2013-12-16 00:53:00
8:53 PM,52.0,43.0,71,30.13,10.0,WNW,9.2,-,N/A,,Scattered Clouds,300,2013-12-16 01:53:00
9:53 PM,51.1,42.1,71,30.15,10.0,WNW,6.9,-,N/A,,Clear,300,2013-12-16 02:53:00
10:53 PM,50.0,42.1,74,30.17,10.0,WNW,5.8,-,N/A,,Clear,300,2013-12-16 03:53:00
11:53 PM,48.9,41.0,74,30.18,10.0,NW,10.4,-,N/A,,Clear,320,2013-12-16 04:53:00